首页
METAR-TAF:

METAR-TAF

机场 :

Duke Field, 佛罗里达州, 美国

纬度: 30-39N, 经度: 086-31W, 海拔: 59米

当前天气观测

该预报发布于41分钟前的17:56 UTC
风速8节,风向
温度 33°C
湿度 56%
气压 1018 hPa
能見度: 16.1公里
少量云层高于17000英尺

METAR: KEGI 071756Z 19008KT 10SM FEW170 33/23 A3007 RMK AO2A LTG DSNT SE SLP181 10333 20227 58000 $

时间: 13:37 (18:37 UTC)

预报

该预报发布于1小时和37分钟前的17:00 UTC
预报有效从07日的 17点(UTC)到 08日的 23点(UTC)
风速9节,风向南转西南
能见度10公里或以上
少量云层高于3000英尺
少量云层高于25000英尺
附近有阵雨
短暂存在
从 07日的 17点(UTC)到 07日的 22点(UTC)
风速15节,风向,有时为25节阵风
能見度: 4800
散云层高于3000英尺, 积雨云.
散云层高于25000英尺
雷暴, 小雨
成为
从 08日的 02点(UTC)到 08日的 03点(UTC)
风速6节,风向西南
能见度10公里或以上
少量云层高于3000英尺
少量云层高于25000英尺
成为
从 08日的 09点(UTC)到 08日的 10点(UTC)
风速6节,风向西转西南
能見度: 4800
散云层高于1800英尺
散云层高于25000英尺
轻雾
成为
从 08日的 12点(UTC)到 08日的 13点(UTC)
风速6节,风向西
能见度10公里或以上
散云层高于2000英尺
散云层高于25000英尺
成为
从 08日的 17点(UTC)到 08日的 18点(UTC)
风速9节,风向
能见度10公里或以上
散云层高于2500英尺, 积雨云.
多云层高于25000英尺
附近有雷暴

TAF: KEGI 071700Z 0717/0823 20009KT 9999 VCSH FEW030 FEW250 QNH3005INS TEMPO 0717/0722 17015G25KT 4800 -TSRA SCT030CB SCT250 BECMG 0802/0803 22006KT 9999 NSW FEW030 FEW250 QNH3006INS BECMG 0809/0810 24006KT 4800 BR SCT018 SCT250 QNH3007INS BECMG 0812/0813 26006KT 9999 NSW SCT020 SCT250 QNH3008INS BECMG 0817/0818 19009KT 9999 VCTS SCT025CB BKN250 QNH3011INS TX34/0721Z TN22/0813Z

超过4000个机场的气象观测和天气预报(METAR&TAF报告)。

可查询的气象台以黄色和红色小点在地图上表示。

将鼠标移到小点上方,可查看气象台名称。

然后点击查看天气观测和预报。

如需切换地图:点击带黑十字的绿色按钮放大地图;点击带横线的绿色按钮缩小地图;或者点击绿色箭头查看邻近地区的地图。


METAR-TAF: